createdAt,value
2022-07-31T00:00:15.231Z,4.50
2022-07-31T00:02:41.695Z,4.40
2022-07-31T00:05:08.592Z,1.60
2022-07-31T00:07:35.107Z,4.33
2022-07-31T00:10:01.635Z,3.70
2022-07-31T00:12:28.029Z,2.97
2022-07-31T00:14:54.565Z,3.20
2022-07-31T00:17:21.111Z,2.97
2022-07-31T00:19:47.533Z,4.57
2022-07-31T00:22:13.974Z,2.50
2022-07-31T00:24:40.480Z,2.27
2022-07-31T00:27:07.245Z,3.33
2022-07-31T00:29:33.725Z,4.43
2022-07-31T00:32:00.149Z,3.40
2022-07-31T00:34:26.555Z,2.37
2022-07-31T00:36:52.933Z,3.10
2022-07-31T00:39:19.347Z,3.43
2022-07-31T00:41:46.597Z,4.07
2022-07-31T00:44:14.187Z,6.07
2022-07-31T00:46:42.067Z,3.33
2022-07-31T00:49:12.842Z,3.80
2022-07-31T00:51:40.094Z,7.63
2022-07-31T00:54:08.367Z,4.10
2022-07-31T00:56:35.629Z,5.13
2022-07-31T00:59:03.011Z,3.70
2022-07-31T01:01:30.721Z,3.07
2022-07-31T01:03:57.389Z,5.70
2022-07-31T01:06:23.859Z,4.03
2022-07-31T01:08:50.378Z,6.13
2022-07-31T01:11:24.800Z,3.60
2022-07-31T01:13:56.036Z,5.07
2022-07-31T01:16:26.194Z,3.43
2022-07-31T01:18:56.692Z,5.60
2022-07-31T01:21:31.836Z,5.13
2022-07-31T01:24:28.988Z,6.60
2022-07-31T01:27:06.404Z,9.03
2022-07-31T01:29:39.873Z,4.57
2022-07-31T01:32:10.613Z,5.93
2022-07-31T01:34:41.992Z,3.63
2022-07-31T01:37:30.195Z,2.47
2022-07-31T01:40:05.792Z,6.07
2022-07-31T01:42:36.566Z,5.07
2022-07-31T01:45:05.385Z,3.40
2022-07-31T01:47:34.416Z,5.47
2022-07-31T01:50:02.674Z,4.97
2022-07-31T01:52:32.381Z,4.63
2022-07-31T01:55:00.654Z,4.43
2022-07-31T01:57:29.509Z,6.00
2022-07-31T02:00:00.868Z,7.07
2022-07-31T02:02:30.314Z,5.07
2022-07-31T02:04:58.128Z,4.10
2022-07-31T02:07:26.389Z,4.73
2022-07-31T02:09:58.807Z,5.80
2022-07-31T02:12:33.212Z,5.60
2022-07-31T02:15:06.370Z,5.83
2022-07-31T02:17:34.902Z,2.87
2022-07-31T02:20:03.528Z,5.00
2022-07-31T02:22:30.023Z,4.47
2022-07-31T02:24:56.674Z,4.77
2022-07-31T02:27:57.855Z,3.70
2022-07-31T02:30:12.464Z,6.83
2022-07-31T02:32:40.861Z,4.93
2022-07-31T02:35:08.603Z,4.97
2022-07-31T02:37:37.349Z,7.93
2022-07-31T02:40:06.958Z,5.97
2022-07-31T02:42:34.246Z,4.67
2022-07-31T02:45:01.991Z,4.83
2022-07-31T02:47:31.494Z,6.27
2022-07-31T02:49:58.353Z,7.57
2022-07-31T02:52:25.028Z,9.77
2022-07-31T02:54:52.816Z,6.97
2022-07-31T02:57:19.330Z,4.73
2022-07-31T02:59:45.737Z,8.20
2022-07-31T03:02:12.152Z,5.70
2022-07-31T03:04:38.600Z,5.60
2022-07-31T03:07:05.021Z,9.40
2022-07-31T03:09:31.611Z,5.20
2022-07-31T03:12:04.067Z,5.10
2022-07-31T03:14:35.390Z,5.23
2022-07-31T03:17:03.308Z,4.77
2022-07-31T03:19:31.339Z,5.73
2022-07-31T03:21:59.440Z,8.23
2022-07-31T03:24:26.961Z,6.10
2022-07-31T03:26:53.407Z,5.97
2022-07-31T03:29:43.442Z,3.83
2022-07-31T03:32:07.168Z,5.53
2022-07-31T03:34:33.719Z,4.73
2022-07-31T03:37:00.204Z,3.70
2022-07-31T03:39:26.617Z,5.63
2022-07-31T03:41:54.991Z,3.60
2022-07-31T03:44:21.973Z,3.37
2022-07-31T03:46:48.438Z,6.67
2022-07-31T03:49:15.461Z,5.23
2022-07-31T03:51:41.966Z,4.83
2022-07-31T03:54:08.490Z,4.80
2022-07-31T03:56:36.483Z,5.37
2022-07-31T03:59:04.075Z,6.13
2022-07-31T04:01:58.212Z,6.43
2022-07-31T04:04:18.407Z,3.50
2022-07-31T04:06:45.205Z,4.60
2022-07-31T04:09:15.497Z,3.57
2022-07-31T04:11:45.756Z,9.37
2022-07-31T04:14:12.273Z,5.33
2022-07-31T04:16:38.815Z,5.77
2022-07-31T04:19:05.212Z,5.30
2022-07-31T04:21:31.612Z,4.00
2022-07-31T04:23:58.003Z,5.27
2022-07-31T04:26:26.026Z,3.77
2022-07-31T04:28:52.968Z,3.70
2022-07-31T04:31:19.395Z,4.97
2022-07-31T04:33:46.596Z,4.07
2022-07-31T04:36:29.523Z,7.10
2022-07-31T04:38:57.465Z,8.03
2022-07-31T04:41:23.869Z,5.30
2022-07-31T04:43:50.419Z,4.03
2022-07-31T04:46:17.241Z,6.43
2022-07-31T04:48:44.966Z,5.77
2022-07-31T04:51:19.345Z,5.70
2022-07-31T04:53:46.530Z,5.93
2022-07-31T04:56:32.733Z,7.67
2022-07-31T04:59:03.721Z,5.20
2022-07-31T05:01:30.582Z,6.90
2022-07-31T05:03:57.411Z,6.80
2022-07-31T05:06:32.805Z,7.33
2022-07-31T05:08:59.228Z,8.00
2022-07-31T05:11:26.766Z,4.33
2022-07-31T05:13:55.462Z,7.47
2022-07-31T05:16:23.063Z,11.40
2022-07-31T05:18:49.923Z,5.43
2022-07-31T05:21:16.796Z,9.20
2022-07-31T05:23:44.371Z,8.63
2022-07-31T05:26:11.252Z,7.60
2022-07-31T05:28:38.735Z,5.07
2022-07-31T05:31:06.982Z,6.17
2022-07-31T05:33:33.778Z,6.33
2022-07-31T05:36:00.948Z,10.37
2022-07-31T05:38:27.956Z,8.30
2022-07-31T05:40:54.460Z,5.27
2022-07-31T05:43:21.143Z,10.03
2022-07-31T05:45:47.710Z,9.33
2022-07-31T05:48:15.228Z,8.07
2022-07-31T05:50:46.074Z,10.83
2022-07-31T05:53:15.091Z,8.40
2022-07-31T05:55:43.271Z,14.60
2022-07-31T05:58:13.591Z,7.80
2022-07-31T06:00:44.107Z,9.77
2022-07-31T06:03:12.452Z,11.60
2022-07-31T06:05:40.381Z,8.10
2022-07-31T06:08:08.753Z,9.53
2022-07-31T06:10:36.844Z,9.77
2022-07-31T06:13:04.619Z,6.70
2022-07-31T06:15:36.065Z,7.07
2022-07-31T06:18:04.112Z,9.80
2022-07-31T06:20:31.025Z,9.37
2022-07-31T06:22:57.901Z,10.97
2022-07-31T06:25:25.018Z,14.27
2022-07-31T06:28:00.062Z,10.33
2022-07-31T06:30:27.902Z,14.10
2022-07-31T06:32:54.511Z,12.03
2022-07-31T06:35:21.014Z,8.50
2022-07-31T06:37:47.483Z,6.87
2022-07-31T06:40:14.502Z,9.50
2022-07-31T06:42:41.784Z,6.87
2022-07-31T06:45:09.086Z,7.20
2022-07-31T06:47:35.583Z,13.67
2022-07-31T06:50:02.367Z,8.90
2022-07-31T06:52:28.906Z,10.67
2022-07-31T06:54:55.575Z,8.47
2022-07-31T06:57:22.046Z,7.77
2022-07-31T06:59:48.509Z,10.93
2022-07-31T07:02:14.940Z,13.47
2022-07-31T07:04:56.391Z,13.80
2022-07-31T07:07:32.103Z,9.23
2022-07-31T07:09:59.095Z,8.77
2022-07-31T07:12:25.505Z,14.37
2022-07-31T07:14:53.381Z,12.00
2022-07-31T07:17:19.849Z,10.80
2022-07-31T07:19:46.493Z,14.40
2022-07-31T07:22:31.360Z,7.30
2022-07-31T07:24:59.987Z,14.40
2022-07-31T07:27:26.540Z,15.57
2022-07-31T07:29:53.159Z,9.90
2022-07-31T07:32:19.608Z,10.77
2022-07-31T07:34:46.089Z,10.97
2022-07-31T07:37:12.579Z,12.77
2022-07-31T07:39:39.039Z,15.43
2022-07-31T07:42:05.856Z,18.77
2022-07-31T07:44:32.626Z,14.97
2022-07-31T07:46:59.058Z,14.33
2022-07-31T07:49:25.562Z,14.00
2022-07-31T07:52:10.191Z,15.73
2022-07-31T07:54:36.962Z,11.87
2022-07-31T07:57:03.550Z,19.57
2022-07-31T07:59:30.333Z,11.43
2022-07-31T08:01:56.748Z,15.17
2022-07-31T08:04:23.158Z,17.53
2022-07-31T08:06:49.614Z,15.30
2022-07-31T08:09:16.392Z,12.20
2022-07-31T08:11:42.883Z,14.03
2022-07-31T08:14:09.629Z,16.80
2022-07-31T08:16:36.122Z,14.37
2022-07-31T08:19:02.606Z,16.90
2022-07-31T08:21:29.024Z,13.73
2022-07-31T08:23:55.480Z,15.00
2022-07-31T08:26:22.511Z,15.07
2022-07-31T08:28:49.809Z,11.53
2022-07-31T08:31:18.816Z,11.90
2022-07-31T08:33:45.217Z,12.30
2022-07-31T08:36:11.757Z,14.73
2022-07-31T08:38:39.217Z,14.30
2022-07-31T08:41:06.117Z,19.47
2022-07-31T08:44:00.637Z,13.27
2022-07-31T08:46:20.390Z,13.77
2022-07-31T08:48:48.510Z,16.23
2022-07-31T08:51:16.987Z,14.70
2022-07-31T08:53:44.697Z,15.63
2022-07-31T08:56:11.912Z,14.83
2022-07-31T08:58:40.140Z,11.70
2022-07-31T09:01:08.640Z,11.07
2022-07-31T09:03:36.129Z,14.20
2022-07-31T09:06:03.517Z,11.77
2022-07-31T09:08:33.911Z,16.93
2022-07-31T09:11:06.879Z,12.33
2022-07-31T09:13:34.970Z,15.20
2022-07-31T09:16:02.138Z,14.23
2022-07-31T09:18:28.563Z,9.87
2022-07-31T09:21:00.436Z,15.00
2022-07-31T09:23:29.269Z,9.23
2022-07-31T09:25:57.999Z,15.73
2022-07-31T09:28:39.828Z,11.80
2022-07-31T09:31:08.378Z,10.70
2022-07-31T09:33:41.310Z,9.23
2022-07-31T09:36:10.349Z,12.57
2022-07-31T09:38:41.918Z,9.93
2022-07-31T09:41:55.865Z,12.83
2022-07-31T09:44:09.440Z,11.93
2022-07-31T09:46:44.617Z,11.53
2022-07-31T09:49:11.687Z,12.20
2022-07-31T09:51:47.785Z,9.50
2022-07-31T09:54:25.460Z,11.23
2022-07-31T09:56:52.363Z,10.17
2022-07-31T09:59:19.172Z,12.97
2022-07-31T10:01:48.959Z,11.83
2022-07-31T10:04:18.318Z,10.80
2022-07-31T10:06:49.866Z,13.40
2022-07-31T10:09:19.989Z,11.73
2022-07-31T10:11:48.364Z,9.77
2022-07-31T10:14:28.554Z,12.43
2022-07-31T10:16:58.474Z,11.73
2022-07-31T10:19:28.559Z,10.07
2022-07-31T10:21:57.652Z,11.97
2022-07-31T10:24:28.319Z,12.67
2022-07-31T10:27:00.811Z,9.37
2022-07-31T10:32:18.559Z,14.03
2022-07-31T10:34:45.421Z,14.43
2022-07-31T10:37:19.159Z,16.37
2022-07-31T10:39:57.748Z,13.10
2022-07-31T10:42:42.953Z,15.73
2022-07-31T10:45:13.218Z,7.07
2022-07-31T10:47:40.152Z,13.07
2022-07-31T10:50:27.727Z,12.43
2022-07-31T10:52:58.721Z,10.13
2022-07-31T10:55:27.291Z,11.27
2022-07-31T10:57:57.259Z,13.80
2022-07-31T11:00:28.540Z,10.63
2022-07-31T11:02:56.758Z,14.80
2022-07-31T11:05:23.735Z,10.97
2022-07-31T11:08:02.043Z,9.23
2022-07-31T11:10:28.563Z,11.17
2022-07-31T11:13:05.626Z,10.60
2022-07-31T11:15:32.765Z,10.00
2022-07-31T11:18:23.477Z,8.83
2022-07-31T11:21:17.677Z,14.87
2022-07-31T11:24:02.052Z,9.73
2022-07-31T11:26:33.714Z,12.13
2022-07-31T11:29:59.846Z,11.17
2022-07-31T11:32:17.034Z,11.67
2022-07-31T11:34:54.113Z,13.97
2022-07-31T11:37:40.495Z,10.60
2022-07-31T11:40:14.547Z,11.93
2022-07-31T11:42:46.225Z,12.23
2022-07-31T11:45:17.075Z,14.70
2022-07-31T11:48:12.124Z,12.00
2022-07-31T11:50:42.659Z,15.33
2022-07-31T11:53:09.201Z,16.77
2022-07-31T11:55:47.660Z,12.50
2022-07-31T11:58:16.609Z,11.37
2022-07-31T12:01:16.420Z,12.93
2022-07-31T12:03:43.832Z,11.83
2022-07-31T12:06:11.391Z,11.50
2022-07-31T12:08:39.841Z,9.77
2022-07-31T12:11:08.876Z,11.67
2022-07-31T12:13:35.606Z,13.07
2022-07-31T12:16:09.907Z,12.07
2022-07-31T12:18:49.076Z,9.97
2022-07-31T12:21:16.877Z,7.73
2022-07-31T12:23:46.534Z,10.60
2022-07-31T12:26:26.158Z,17.47
2022-07-31T12:29:07.874Z,10.07
2022-07-31T12:31:48.522Z,7.70
2022-07-31T12:34:38.385Z,12.43
2022-07-31T12:37:09.051Z,12.23
2022-07-31T12:39:53.885Z,9.70
2022-07-31T12:42:30.486Z,12.23
2022-07-31T12:45:01.068Z,9.40
2022-07-31T12:47:45.223Z,7.47
2022-07-31T12:50:17.881Z,10.57
2022-07-31T12:52:45.361Z,8.50
2022-07-31T12:55:12.034Z,8.67
2022-07-31T12:57:44.661Z,11.07
2022-07-31T13:00:18.492Z,14.47
2022-07-31T13:02:45.179Z,12.43
2022-07-31T13:05:11.796Z,11.37
2022-07-31T13:07:39.001Z,11.43
2022-07-31T13:10:20.144Z,11.30
2022-07-31T13:12:51.181Z,10.73
2022-07-31T13:15:20.737Z,9.93
2022-07-31T13:17:48.074Z,10.73
2022-07-31T13:20:17.140Z,9.57
2022-07-31T13:22:43.606Z,9.67
2022-07-31T13:25:10.095Z,9.10
2022-07-31T13:27:36.623Z,6.53
2022-07-31T13:30:03.759Z,9.20
2022-07-31T13:32:31.686Z,8.03
2022-07-31T13:35:26.608Z,12.00
2022-07-31T13:37:46.492Z,8.90
2022-07-31T13:40:13.563Z,10.43
2022-07-31T13:42:40.275Z,11.77
2022-07-31T13:45:08.674Z,10.73
2022-07-31T13:47:50.894Z,8.90
2022-07-31T13:50:18.961Z,13.50
2022-07-31T13:52:45.618Z,15.57
2022-07-31T13:55:12.005Z,14.13
2022-07-31T13:57:38.793Z,10.07
2022-07-31T14:00:06.260Z,12.03
2022-07-31T14:02:32.721Z,8.87
2022-07-31T14:04:59.179Z,10.40
2022-07-31T14:07:45.168Z,12.87
2022-07-31T14:10:17.129Z,13.27
2022-07-31T14:12:46.395Z,8.70
2022-07-31T14:15:12.882Z,10.27
2022-07-31T14:17:39.336Z,14.13
2022-07-31T14:20:06.631Z,10.47
2022-07-31T14:22:33.066Z,12.20
2022-07-31T14:24:59.542Z,17.07
2022-07-31T14:27:25.955Z,10.33
2022-07-31T14:29:52.629Z,12.20
2022-07-31T14:32:19.634Z,9.17
2022-07-31T14:34:47.208Z,8.53
2022-07-31T14:37:14.283Z,10.30
2022-07-31T14:39:42.853Z,11.27
2022-07-31T14:42:09.830Z,22.07
2022-07-31T14:44:36.925Z,10.67
2022-07-31T14:47:03.808Z,10.47
2022-07-31T14:50:09.249Z,13.77
2022-07-31T14:52:18.054Z,13.33
2022-07-31T14:54:44.559Z,10.73
2022-07-31T14:57:11.087Z,16.67
2022-07-31T14:59:37.628Z,7.67
2022-07-31T15:02:04.115Z,10.40
2022-07-31T15:04:30.685Z,16.27
2022-07-31T15:07:13.216Z,14.03
2022-07-31T15:09:43.775Z,14.20
2022-07-31T15:12:12.253Z,15.77
2022-07-31T15:14:38.796Z,11.17
2022-07-31T15:17:05.551Z,14.70
2022-07-31T15:19:32.105Z,13.00
2022-07-31T15:22:10.728Z,16.90
2022-07-31T15:24:48.203Z,7.80
2022-07-31T15:27:16.068Z,9.70
2022-07-31T15:30:04.906Z,14.87
2022-07-31T15:32:29.498Z,16.37
2022-07-31T15:34:55.913Z,12.43
2022-07-31T15:37:22.446Z,11.03
2022-07-31T15:40:02.100Z,11.57
2022-07-31T15:42:31.813Z,20.20
2022-07-31T15:44:58.439Z,16.07
2022-07-31T15:47:25.128Z,12.27
2022-07-31T15:49:51.532Z,12.87
2022-07-31T15:52:18.939Z,13.73
2022-07-31T15:54:46.439Z,12.57
2022-07-31T15:57:13.413Z,11.77
2022-07-31T15:59:39.935Z,12.27
2022-07-31T16:02:07.187Z,14.57
2022-07-31T16:04:34.861Z,15.17
2022-07-31T16:08:26.851Z,17.63
2022-07-31T16:10:00.877Z,12.97
2022-07-31T16:12:35.711Z,12.53
2022-07-31T16:15:02.601Z,16.30
2022-07-31T16:17:40.356Z,12.83
2022-07-31T16:20:09.357Z,17.37
2022-07-31T16:22:37.152Z,15.00
2022-07-31T16:25:05.013Z,12.53
2022-07-31T16:27:31.545Z,19.10
2022-07-31T16:30:01.634Z,13.13
2022-07-31T16:32:28.871Z,15.47
2022-07-31T16:35:00.166Z,13.33
2022-07-31T16:37:49.952Z,18.47
2022-07-31T16:40:24.716Z,16.77
2022-07-31T16:43:01.913Z,18.33
2022-07-31T16:45:29.815Z,16.67
2022-07-31T16:47:56.306Z,23.37
2022-07-31T16:50:22.993Z,13.70
2022-07-31T16:52:54.140Z,17.37
2022-07-31T16:55:21.933Z,17.53
2022-07-31T16:58:11.109Z,15.87
2022-07-31T17:00:38.975Z,17.93
2022-07-31T17:03:05.727Z,14.63
2022-07-31T17:05:32.276Z,15.10
2022-07-31T17:07:58.796Z,21.17
2022-07-31T17:10:25.366Z,16.97
2022-07-31T17:12:53.621Z,15.97
2022-07-31T17:15:20.683Z,20.90
2022-07-31T17:17:47.210Z,19.53
2022-07-31T17:20:13.749Z,17.20
2022-07-31T17:22:42.878Z,15.87
2022-07-31T17:25:09.871Z,15.77
2022-07-31T17:27:36.362Z,23.03
2022-07-31T17:30:03.489Z,14.17
2022-07-31T17:32:32.125Z,19.87
2022-07-31T17:34:58.518Z,22.03
2022-07-31T17:37:25.119Z,20.00
2022-07-31T17:39:56.323Z,23.87
2022-07-31T17:42:25.656Z,14.10
2022-07-31T17:44:55.201Z,17.60
2022-07-31T17:47:25.485Z,20.13
2022-07-31T17:49:52.744Z,13.97
2022-07-31T17:52:20.957Z,18.47
2022-07-31T17:54:48.025Z,17.57
2022-07-31T17:57:14.733Z,16.83
2022-07-31T17:59:42.094Z,17.80
2022-07-31T18:02:09.199Z,23.60
2022-07-31T18:04:39.887Z,16.53
2022-07-31T18:07:07.561Z,19.37
2022-07-31T18:09:36.462Z,14.47
2022-07-31T18:12:04.175Z,20.27
2022-07-31T18:14:30.897Z,17.93
2022-07-31T18:16:57.413Z,19.53
2022-07-31T18:19:24.055Z,16.53
2022-07-31T18:21:51.561Z,12.13
2022-07-31T18:24:19.046Z,16.30
2022-07-31T18:26:47.663Z,16.87
2022-07-31T18:29:14.167Z,14.33
2022-07-31T18:31:40.887Z,17.93
2022-07-31T18:34:07.635Z,17.93
2022-07-31T18:36:34.973Z,19.93
2022-07-31T18:39:01.959Z,14.00
2022-07-31T18:41:29.764Z,16.40
2022-07-31T18:43:57.242Z,10.93
2022-07-31T18:46:24.802Z,17.87
2022-07-31T18:48:55.327Z,13.63
2022-07-31T18:51:23.177Z,18.27
2022-07-31T18:53:50.352Z,18.93
2022-07-31T18:56:16.923Z,19.90
2022-07-31T18:58:43.374Z,15.00
2022-07-31T19:01:09.950Z,12.67
2022-07-31T19:03:36.782Z,12.07
2022-07-31T19:06:04.305Z,10.87
2022-07-31T19:08:30.782Z,13.87
2022-07-31T19:10:57.203Z,14.40
2022-07-31T19:13:23.640Z,16.17
2022-07-31T19:15:52.799Z,20.10
2022-07-31T19:18:28.161Z,18.23
2022-07-31T19:21:18.050Z,15.27
2022-07-31T19:23:44.754Z,13.30
2022-07-31T19:26:11.337Z,25.17
2022-07-31T19:28:39.710Z,16.30
2022-07-31T19:31:06.886Z,15.90
2022-07-31T19:33:33.276Z,14.03
2022-07-31T19:36:02.377Z,13.43
2022-07-31T19:38:30.702Z,14.60
2022-07-31T19:40:57.193Z,14.73
2022-07-31T19:43:23.621Z,10.40
2022-07-31T19:46:09.740Z,11.03
2022-07-31T19:48:36.975Z,8.70
2022-07-31T19:51:04.649Z,9.77
2022-07-31T19:53:31.339Z,9.23
2022-07-31T19:55:57.852Z,6.53
2022-07-31T19:58:24.512Z,8.30
2022-07-31T20:00:51.004Z,9.00
2022-07-31T20:03:17.643Z,8.03
2022-07-31T20:05:44.299Z,5.87
2022-07-31T20:08:10.976Z,7.73
2022-07-31T20:10:37.580Z,5.63
2022-07-31T20:13:04.167Z,6.60
2022-07-31T20:15:49.634Z,6.93
2022-07-31T20:18:26.746Z,4.00
2022-07-31T20:20:58.513Z,3.37
2022-07-31T20:23:26.097Z,5.20
2022-07-31T20:25:53.008Z,7.93
2022-07-31T20:28:19.574Z,6.37
2022-07-31T20:30:46.337Z,4.90
2022-07-31T20:33:13.465Z,6.23
2022-07-31T20:35:48.852Z,7.07
2022-07-31T20:38:17.971Z,4.90
2022-07-31T20:40:52.747Z,4.93
2022-07-31T20:43:20.922Z,4.17
2022-07-31T20:45:47.644Z,4.30
2022-07-31T20:48:15.171Z,6.43
2022-07-31T20:50:41.689Z,4.70
2022-07-31T20:53:10.250Z,3.77
2022-07-31T20:55:36.699Z,5.53
2022-07-31T20:58:03.669Z,8.17
2022-07-31T21:00:32.404Z,6.57
2022-07-31T21:02:58.881Z,6.27
2022-07-31T21:05:29.278Z,4.70
2022-07-31T21:07:56.661Z,3.57
2022-07-31T21:10:25.151Z,4.37
2022-07-31T21:12:51.718Z,3.17
2022-07-31T21:15:27.185Z,3.77
2022-07-31T21:18:05.551Z,5.07
2022-07-31T21:20:52.177Z,7.30
2022-07-31T21:23:19.318Z,5.93
2022-07-31T21:25:47.402Z,5.03
2022-07-31T21:28:14.087Z,6.23
2022-07-31T21:30:41.237Z,5.03
2022-07-31T21:33:08.854Z,5.20
2022-07-31T21:35:36.234Z,3.93
2022-07-31T21:38:04.503Z,4.33
2022-07-31T21:40:33.807Z,5.13
2022-07-31T21:43:00.659Z,6.50
2022-07-31T21:45:29.072Z,7.17
2022-07-31T21:48:11.479Z,11.13
2022-07-31T21:50:41.284Z,6.50
2022-07-31T21:53:08.601Z,7.50
2022-07-31T21:55:36.790Z,4.77
2022-07-31T21:58:04.038Z,5.87
2022-07-31T22:00:30.686Z,4.63
2022-07-31T22:02:58.185Z,5.10
2022-07-31T22:05:43.399Z,4.03
2022-07-31T22:08:09.831Z,4.37
2022-07-31T22:10:36.361Z,4.80
2022-07-31T22:13:02.767Z,3.40
2022-07-31T22:15:58.358Z,3.83
2022-07-31T22:18:15.841Z,2.90
2022-07-31T22:20:42.617Z,6.83
2022-07-31T22:23:10.251Z,4.27
2022-07-31T22:25:37.448Z,6.67
2022-07-31T22:28:07.397Z,3.10
2022-07-31T22:30:34.031Z,5.30
2022-07-31T22:33:01.032Z,6.67
2022-07-31T22:35:28.435Z,4.60
2022-07-31T22:37:55.290Z,6.70
2022-07-31T22:40:23.700Z,5.97
2022-07-31T22:42:56.058Z,5.80
2022-07-31T22:45:23.998Z,5.40
2022-07-31T22:47:51.286Z,7.47
2022-07-31T22:50:17.833Z,8.10
2022-07-31T22:52:44.725Z,6.40
2022-07-31T22:55:13.544Z,5.67
2022-07-31T22:57:43.582Z,6.10
2022-07-31T23:00:12.452Z,5.33
2022-07-31T23:02:40.132Z,4.87
2022-07-31T23:05:08.319Z,5.60
2022-07-31T23:07:34.743Z,6.37
2022-07-31T23:10:01.149Z,5.80
2022-07-31T23:12:28.544Z,4.80
2022-07-31T23:14:56.113Z,5.50
2022-07-31T23:17:23.532Z,5.97
2022-07-31T23:19:53.905Z,5.80
2022-07-31T23:22:33.821Z,5.90
2022-07-31T23:25:05.199Z,6.00
2022-07-31T23:27:32.942Z,5.23
2022-07-31T23:29:59.910Z,7.03
2022-07-31T23:32:27.853Z,7.33
2022-07-31T23:34:54.564Z,10.43
2022-07-31T23:37:21.383Z,7.57
2022-07-31T23:39:47.878Z,8.23
2022-07-31T23:42:32.778Z,8.27
2022-07-31T23:44:59.310Z,7.07
2022-07-31T23:47:32.108Z,6.57
2022-07-31T23:50:11.848Z,7.10
2022-07-31T23:52:38.597Z,6.13
2022-07-31T23:55:05.313Z,4.63
2022-07-31T23:57:34.289Z,6.70
